Terminal Aerodrome Forecast
Issued by NWS

Home | Current Version | Previous Version | Text Only | Print | Product List | Glossary On
Versions: 1 2 3 4 5 6 7 8 9 10 11 12 13 14 15 16 17 18
000
FTUS41 KPBZ 291720
TAFZZV
TAF
KZZV 291720Z 2918/3018 18008KT P6SM VCTS BKN040CB
     FM292300 18005KT P6SM BKN100
     FM301400 22005KT P6SM BKN100=

USA.gov is the U.S. government's official web portal to all federal, state and local government web resources and services.